sensor_id;sensor_type;location;lat;lon;timestamp;P1;durP1;ratioP1;P2;durP2;ratioP2
20336;SDS011;10326;53.660;10.200;2024-02-15T00:03:10;11.93;;;10.63;;
20336;SDS011;10326;53.660;10.200;2024-02-15T00:05:57;11.93;;;10.63;;
20336;SDS011;10326;53.660;10.200;2024-02-15T00:09:19;13.20;;;10.55;;
20336;SDS011;10326;53.660;10.200;2024-02-15T00:12:51;12.25;;;11.00;;
20336;SDS011;10326;53.660;10.200;2024-02-15T00:42:54;10.93;;;9.82;;
20336;SDS011;10326;53.660;10.200;2024-02-15T00:46:03;12.13;;;10.32;;
20336;SDS011;10326;53.660;10.200;2024-02-15T00:51:40;12.75;;;10.40;;
20336;SDS011;10326;53.660;10.200;2024-02-15T00:55:31;12.25;;;10.95;;
20336;SDS011;10326;53.660;10.200;2024-02-15T00:58:01;12.93;;;11.57;;
20336;SDS011;10326;53.660;10.200;2024-02-15T01:05:34;14.65;;;13.15;;
20336;SDS011;10326;53.660;10.200;2024-02-15T01:08:17;15.95;;;13.95;;
20336;SDS011;10326;53.660;10.200;2024-02-15T01:11:42;17.48;;;14.77;;
20336;SDS011;10326;53.660;10.200;2024-02-15T01:15:16;15.60;;;13.98;;
20336;SDS011;10326;53.660;10.200;2024-02-15T01:21:42;16.95;;;15.15;;
20336;SDS011;10326;53.660;10.200;2024-02-15T01:24:14;17.13;;;15.32;;
20336;SDS011;10326;53.660;10.200;2024-02-15T01:26:47;17.70;;;15.75;;
20336;SDS011;10326;53.660;10.200;2024-02-15T01:29:14;17.30;;;15.50;;
20336;SDS011;10326;53.660;10.200;2024-02-15T01:31:44;17.77;;;15.30;;
20336;SDS011;10326;53.660;10.200;2024-02-15T01:34:13;18.33;;;15.32;;
20336;SDS011;10326;53.660;10.200;2024-02-15T01:36:42;17.70;;;15.73;;
20336;SDS011;10326;53.660;10.200;2024-02-15T01:41:51;17.63;;;15.40;;
20336;SDS011;10326;53.660;10.200;2024-02-15T01:43:08;17.90;;;16.00;;
20336;SDS011;10326;53.660;10.200;2024-02-15T01:45:42;17.73;;;15.82;;
20336;SDS011;10326;53.660;10.200;2024-02-15T01:48:26;18.02;;;16.23;;
20336;SDS011;10326;53.660;10.200;2024-02-15T01:51:57;17.25;;;15.45;;
20336;SDS011;10326;53.660;10.200;2024-02-15T01:59:15;17.52;;;15.63;;
20336;SDS011;10326;53.660;10.200;2024-02-15T02:09:12;14.50;;;13.02;;
20336;SDS011;10326;53.660;10.200;2024-02-15T02:12:17;16.50;;;14.73;;
20336;SDS011;10326;53.660;10.200;2024-02-15T02:14:47;16.58;;;14.80;;
20336;SDS011;10326;53.660;10.200;2024-02-15T02:17:16;17.52;;;15.73;;
20336;SDS011;10326;53.660;10.200;2024-02-15T02:22:31;17.98;;;16.05;;
20336;SDS011;10326;53.660;10.200;2024-02-15T02:24:19;18.02;;;16.13;;
20336;SDS011;10326;53.660;10.200;2024-02-15T02:34:19;17.10;;;15.30;;
20336;SDS011;10326;53.660;10.200;2024-02-15T02:36:55;16.75;;;15.05;;
20336;SDS011;10326;53.660;10.200;2024-02-15T02:49:28;17.52;;;15.73;;
20336;SDS011;10326;53.660;10.200;2024-02-15T02:55:36;17.95;;;15.90;;
20336;SDS011;10326;53.660;10.200;2024-02-15T03:50:33;15.50;;;12.88;;
20336;SDS011;10326;53.660;10.200;2024-02-15T04:31:46;16.15;;;14.02;;
20336;SDS011;10326;53.660;10.200;2024-02-15T04:38:40;17.83;;;14.80;;
20336;SDS011;10326;53.660;10.200;2024-02-15T05:07:21;18.63;;;15.30;;
20336;SDS011;10326;53.660;10.200;2024-02-15T05:13:53;22.58;;;15.80;;
20336;SDS011;10326;53.660;10.200;2024-02-15T05:43:16;19.92;;;15.30;;
20336;SDS011;10326;53.660;10.200;2024-02-15T05:46:58;21.80;;;16.35;;
20336;SDS011;10326;53.660;10.200;2024-02-15T05:51:23;21.90;;;16.83;;
20336;SDS011;10326;53.660;10.200;2024-02-15T12:03:22;20.55;;;16.77;;
20336;SDS011;10326;53.660;10.200;2024-02-15T12:06:08;18.02;;;16.08;;
20336;SDS011;10326;53.660;10.200;2024-02-15T12:08:52;18.15;;;16.25;;
20336;SDS011;10326;53.660;10.200;2024-02-15T12:11:38;19.65;;;16.75;;
20336;SDS011;10326;53.660;10.200;2024-02-15T12:14:24;18.42;;;15.60;;
20336;SDS011;10326;53.660;10.200;2024-02-15T12:17:08;20.17;;;16.73;;
20336;SDS011;10326;53.660;10.200;2024-02-15T12:19:56;19.70;;;17.02;;
20336;SDS011;10326;53.660;10.200;2024-02-15T12:22:26;19.48;;;16.83;;
20336;SDS011;10326;53.660;10.200;2024-02-15T12:24:59;21.50;;;16.75;;
20336;SDS011;10326;53.660;10.200;2024-02-15T12:27:31;20.02;;;18.00;;
20336;SDS011;10326;53.660;10.200;2024-02-15T12:29:59;21.02;;;18.27;;
20336;SDS011;10326;53.660;10.200;2024-02-15T12:32:27;20.58;;;18.38;;
20336;SDS011;10326;53.660;10.200;2024-02-15T12:35:10;19.05;;;16.88;;
20336;SDS011;10326;53.660;10.200;2024-02-15T12:37:41;20.33;;;17.90;;
20336;SDS011;10326;53.660;10.200;2024-02-15T12:40:12;19.42;;;17.42;;
20336;SDS011;10326;53.660;10.200;2024-02-15T12:42:42;19.25;;;17.23;;
20336;SDS011;10326;53.660;10.200;2024-02-15T12:45:16;19.10;;;16.48;;
20336;SDS011;10326;53.660;10.200;2024-02-15T12:47:47;17.48;;;15.63;;
20336;SDS011;10326;53.660;10.200;2024-02-15T12:50:18;17.05;;;15.25;;
20336;SDS011;10326;53.660;10.200;2024-02-15T12:52:47;17.35;;;15.27;;
20336;SDS011;10326;53.660;10.200;2024-02-15T12:55:15;16.77;;;14.98;;
20336;SDS011;10326;53.660;10.200;2024-02-15T12:57:45;15.43;;;13.93;;
20336;SDS011;10326;53.660;10.200;2024-02-15T13:00:17;16.45;;;14.75;;
20336;SDS011;10326;53.660;10.200;2024-02-15T13:02:46;15.57;;;14.07;;
20336;SDS011;10326;53.660;10.200;2024-02-15T13:05:15;16.17;;;14.57;;
20336;SDS011;10326;53.660;10.200;2024-02-15T13:07:45;15.25;;;13.75;;
20336;SDS011;10326;53.660;10.200;2024-02-15T13:10:12;14.90;;;13.40;;
20336;SDS011;10326;53.660;10.200;2024-02-15T13:12:42;13.57;;;12.18;;
20336;SDS011;10326;53.660;10.200;2024-02-15T13:15:10;13.95;;;12.55;;
20336;SDS011;10326;53.660;10.200;2024-02-15T13:17:40;12.82;;;11.55;;
20336;SDS011;10326;53.660;10.200;2024-02-15T13:20:10;12.38;;;11.18;;
20336;SDS011;10326;53.660;10.200;2024-02-15T13:22:39;11.95;;;10.75;;
20336;SDS011;10326;53.660;10.200;2024-02-15T13:25:10;12.00;;;10.80;;
20336;SDS011;10326;53.660;10.200;2024-02-15T13:27:37;12.07;;;10.98;;
20336;SDS011;10326;53.660;10.200;2024-02-15T13:30:04;11.27;;;10.27;;
20336;SDS011;10326;53.660;10.200;2024-02-15T13:32:35;11.20;;;10.13;;
20336;SDS011;10326;53.660;10.200;2024-02-15T13:35:03;10.15;;;9.25;;
20336;SDS011;10326;53.660;10.200;2024-02-15T13:37:39;10.50;;;9.50;;
20336;SDS011;10326;53.660;10.200;2024-02-15T13:40:10;10.15;;;9.25;;
20336;SDS011;10326;53.660;10.200;2024-02-15T13:42:41;9.80;;;8.90;;
20336;SDS011;10326;53.660;10.200;2024-02-15T13:45:14;9.35;;;8.45;;
20336;SDS011;10326;53.660;10.200;2024-02-15T13:47:43;9.45;;;8.55;;
20336;SDS011;10326;53.660;10.200;2024-02-15T13:50:12;9.15;;;8.35;;
20336;SDS011;10326;53.660;10.200;2024-02-15T13:52:41;8.82;;;8.00;;
20336;SDS011;10326;53.660;10.200;2024-02-15T13:55:11;9.10;;;8.30;;
20336;SDS011;10326;53.660;10.200;2024-02-15T13:57:39;8.82;;;8.07;;
20336;SDS011;10326;53.660;10.200;2024-02-15T14:00:08;8.82;;;8.02;;
20336;SDS011;10326;53.660;10.200;2024-02-15T14:02:46;8.98;;;8.27;;
20336;SDS011;10326;53.660;10.200;2024-02-15T14:05:14;9.38;;;8.57;;
20336;SDS011;10326;53.660;10.200;2024-02-15T14:07:45;9.15;;;8.45;;
20336;SDS011;10326;53.660;10.200;2024-02-15T14:10:18;9.63;;;8.77;;
20336;SDS011;10326;53.660;10.200;2024-02-15T14:12:46;9.93;;;9.02;;
20336;SDS011;10326;53.660;10.200;2024-02-15T14:15:14;9.45;;;8.70;;
20336;SDS011;10326;53.660;10.200;2024-02-15T14:17:42;9.73;;;8.93;;
20336;SDS011;10326;53.660;10.200;2024-02-15T14:20:10;10.43;;;9.15;;
20336;SDS011;10326;53.660;10.200;2024-02-15T14:22:39;9.77;;;8.95;;
20336;SDS011;10326;53.660;10.200;2024-02-15T14:25:07;9.38;;;8.57;;
20336;SDS011;10326;53.660;10.200;2024-02-15T14:27:35;9.80;;;9.00;;
20336;SDS011;10326;53.660;10.200;2024-02-15T14:30:04;9.88;;;9.10;;
20336;SDS011;10326;53.660;10.200;2024-02-15T14:32:50;9.75;;;8.85;;
20336;SDS011;10326;53.660;10.200;2024-02-15T14:35:30;10.02;;;9.02;;
20336;SDS011;10326;53.660;10.200;2024-02-15T14:37:59;10.02;;;9.20;;
20336;SDS011;10326;53.660;10.200;2024-02-15T14:40:31;10.85;;;9.88;;
20336;SDS011;10326;53.660;10.200;2024-02-15T14:43:01;9.63;;;8.80;;
20336;SDS011;10326;53.660;10.200;2024-02-15T14:45:29;10.73;;;9.75;;
20336;SDS011;10326;53.660;10.200;2024-02-15T14:47:57;11.10;;;10.18;;
20336;SDS011;10326;53.660;10.200;2024-02-15T14:50:24;10.98;;;9.90;;
20336;SDS011;10326;53.660;10.200;2024-02-15T14:52:52;11.23;;;10.02;;
20336;SDS011;10326;53.660;10.200;2024-02-15T14:55:19;11.07;;;10.07;;
20336;SDS011;10326;53.660;10.200;2024-02-15T14:57:47;11.18;;;9.20;;
20336;SDS011;10326;53.660;10.200;2024-02-15T15:00:16;10.35;;;9.45;;
20336;SDS011;10326;53.660;10.200;2024-02-15T15:02:47;10.90;;;9.88;;
20336;SDS011;10326;53.660;10.200;2024-02-15T15:05:15;10.70;;;9.73;;
20336;SDS011;10326;53.660;10.200;2024-02-15T15:08:00;10.25;;;9.35;;
20336;SDS011;10326;53.660;10.200;2024-02-15T15:10:45;10.00;;;9.10;;
20336;SDS011;10326;53.660;10.200;2024-02-15T15:13:30;9.60;;;8.80;;
20336;SDS011;10326;53.660;10.200;2024-02-15T15:15:59;9.95;;;9.05;;
20336;SDS011;10326;53.660;10.200;2024-02-15T15:18:27;10.00;;;9.07;;
20336;SDS011;10326;53.660;10.200;2024-02-15T15:20:56;9.70;;;8.88;;
20336;SDS011;10326;53.660;10.200;2024-02-15T15:23:24;9.95;;;9.05;;
20336;SDS011;10326;53.660;10.200;2024-02-15T15:25:51;10.10;;;9.20;;
20336;SDS011;10326;53.660;10.200;2024-02-15T15:28:18;9.63;;;8.82;;
20336;SDS011;10326;53.660;10.200;2024-02-15T15:30:45;10.07;;;9.07;;
20336;SDS011;10326;53.660;10.200;2024-02-15T15:33:17;9.60;;;8.82;;
20336;SDS011;10326;53.660;10.200;2024-02-15T15:35:45;9.13;;;8.40;;
20336;SDS011;10326;53.660;10.200;2024-02-15T15:38:12;9.20;;;8.40;;
20336;SDS011;10326;53.660;10.200;2024-02-15T15:40:40;9.85;;;9.05;;
20336;SDS011;10326;53.660;10.200;2024-02-15T15:43:07;9.85;;;9.05;;
20336;SDS011;10326;53.660;10.200;2024-02-15T15:45:36;10.02;;;9.23;;
20336;SDS011;10326;53.660;10.200;2024-02-15T15:48:03;10.18;;;9.27;;
20336;SDS011;10326;53.660;10.200;2024-02-15T15:50:32;10.13;;;9.27;;
20336;SDS011;10326;53.660;10.200;2024-02-15T15:53:00;10.65;;;9.73;;
20336;SDS011;10326;53.660;10.200;2024-02-15T15:55:28;10.20;;;9.30;;
20336;SDS011;10326;53.660;10.200;2024-02-15T15:57:55;11.45;;;10.40;;
20336;SDS011;10326;53.660;10.200;2024-02-15T16:00:23;10.98;;;10.07;;
20336;SDS011;10326;53.660;10.200;2024-02-15T16:02:51;10.27;;;9.48;;
20336;SDS011;10326;53.660;10.200;2024-02-15T16:05:21;10.70;;;9.68;;
20336;SDS011;10326;53.660;10.200;2024-02-15T16:07:50;11.27;;;10.27;;
20336;SDS011;10326;53.660;10.200;2024-02-15T16:10:17;12.13;;;11.13;;
20336;SDS011;10326;53.660;10.200;2024-02-15T16:12:49;11.82;;;10.82;;
20336;SDS011;10326;53.660;10.200;2024-02-15T16:15:17;11.13;;;10.20;;
20336;SDS011;10326;53.660;10.200;2024-02-15T16:17:45;11.80;;;10.73;;
20336;SDS011;10326;53.660;10.200;2024-02-15T16:20:12;12.07;;;11.07;;
20336;SDS011;10326;53.660;10.200;2024-02-15T16:22:40;11.52;;;10.52;;
20336;SDS011;10326;53.660;10.200;2024-02-15T16:25:09;12.35;;;11.27;;
20336;SDS011;10326;53.660;10.200;2024-02-15T16:27:37;12.52;;;11.45;;
20336;SDS011;10326;53.660;10.200;2024-02-15T16:30:06;11.85;;;10.95;;
20336;SDS011;10326;53.660;10.200;2024-02-15T16:32:35;12.15;;;11.15;;
20336;SDS011;10326;53.660;10.200;2024-02-15T16:35:03;11.30;;;10.38;;
20336;SDS011;10326;53.660;10.200;2024-02-15T16:37:35;12.68;;;11.57;;
20336;SDS011;10326;53.660;10.200;2024-02-15T16:40:04;12.35;;;11.10;;
20336;SDS011;10326;53.660;10.200;2024-02-15T16:42:35;12.45;;;11.25;;
20336;SDS011;10326;53.660;10.200;2024-02-15T16:45:03;11.98;;;11.00;;
20336;SDS011;10326;53.660;10.200;2024-02-15T16:47:32;12.73;;;11.80;;
20336;SDS011;10326;53.660;10.200;2024-02-15T16:50:00;12.82;;;11.73;;
20336;SDS011;10326;53.660;10.200;2024-02-15T16:52:29;12.77;;;11.68;;
20336;SDS011;10326;53.660;10.200;2024-02-15T16:54:56;13.27;;;11.90;;
20336;SDS011;10326;53.660;10.200;2024-02-15T16:57:25;12.75;;;11.55;;
20336;SDS011;10326;53.660;10.200;2024-02-15T16:59:53;13.45;;;12.15;;
20336;SDS011;10326;53.660;10.200;2024-02-15T17:02:20;12.45;;;11.25;;
20336;SDS011;10326;53.660;10.200;2024-02-15T17:04:47;13.23;;;12.00;;
20336;SDS011;10326;53.660;10.200;2024-02-15T17:07:14;12.90;;;11.80;;
20336;SDS011;10326;53.660;10.200;2024-02-15T17:09:42;12.75;;;11.65;;
20336;SDS011;10326;53.660;10.200;2024-02-15T17:12:09;12.88;;;11.73;;
20336;SDS011;10326;53.660;10.200;2024-02-15T17:14:36;12.52;;;11.50;;
20336;SDS011;10326;53.660;10.200;2024-02-15T17:17:06;13.57;;;12.43;;
20336;SDS011;10326;53.660;10.200;2024-02-15T17:19:33;12.95;;;11.82;;
20336;SDS011;10326;53.660;10.200;2024-02-15T17:22:01;12.73;;;11.60;;
20336;SDS011;10326;53.660;10.200;2024-02-15T17:24:29;13.10;;;11.90;;
20336;SDS011;10326;53.660;10.200;2024-02-15T17:26:57;12.75;;;11.38;;
20336;SDS011;10326;53.660;10.200;2024-02-15T17:29:25;12.38;;;11.18;;
20336;SDS011;10326;53.660;10.200;2024-02-15T17:31:52;12.57;;;11.38;;
20336;SDS011;10326;53.660;10.200;2024-02-15T17:34:22;12.57;;;11.38;;
20336;SDS011;10326;53.660;10.200;2024-02-15T17:36:51;12.57;;;11.57;;
20336;SDS011;10326;53.660;10.200;2024-02-15T17:39:18;12.88;;;11.57;;
20336;SDS011;10326;53.660;10.200;2024-02-15T17:41:46;12.35;;;11.35;;
20336;SDS011;10326;53.660;10.200;2024-02-15T17:44:13;12.20;;;10.95;;
20336;SDS011;10326;53.660;10.200;2024-02-15T17:46:40;12.23;;;11.13;;
20336;SDS011;10326;53.660;10.200;2024-02-15T17:49:07;12.50;;;11.52;;
20336;SDS011;10326;53.660;10.200;2024-02-15T17:51:35;12.18;;;10.98;;
20336;SDS011;10326;53.660;10.200;2024-02-15T17:54:06;12.70;;;11.60;;
20336;SDS011;10326;53.660;10.200;2024-02-15T17:56:33;12.68;;;11.48;;
20336;SDS011;10326;53.660;10.200;2024-02-15T17:59:00;12.25;;;11.15;;
20336;SDS011;10326;53.660;10.200;2024-02-15T18:01:28;11.95;;;10.85;;
20336;SDS011;10326;53.660;10.200;2024-02-15T18:03:56;12.05;;;11.05;;
20336;SDS011;10326;53.660;10.200;2024-02-15T18:06:24;12.43;;;11.23;;
20336;SDS011;10326;53.660;10.200;2024-02-15T18:08:53;11.70;;;10.60;;
20336;SDS011;10326;53.660;10.200;2024-02-15T18:11:20;12.00;;;11.00;;
20336;SDS011;10326;53.660;10.200;2024-02-15T18:13:48;12.75;;;11.55;;
20336;SDS011;10326;53.660;10.200;2024-02-15T18:16:15;11.13;;;9.85;;
20336;SDS011;10326;53.660;10.200;2024-02-15T18:18:44;11.65;;;10.65;;
20336;SDS011;10326;53.660;10.200;2024-02-15T18:21:13;11.02;;;10.05;;
20336;SDS011;10326;53.660;10.200;2024-02-15T18:23:40;10.75;;;9.85;;
20336;SDS011;10326;53.660;10.200;2024-02-15T18:26:08;11.48;;;10.38;;
20336;SDS011;10326;53.660;10.200;2024-02-15T18:28:36;11.73;;;10.73;;
20336;SDS011;10326;53.660;10.200;2024-02-15T18:31:03;11.40;;;10.38;;
20336;SDS011;10326;53.660;10.200;2024-02-15T18:33:32;11.15;;;10.07;;
20336;SDS011;10326;53.660;10.200;2024-02-15T18:36:04;11.05;;;10.15;;
20336;SDS011;10326;53.660;10.200;2024-02-15T18:38:33;10.88;;;9.80;;
20336;SDS011;10326;53.660;10.200;2024-02-15T18:41:00;10.73;;;9.82;;
20336;SDS011;10326;53.660;10.200;2024-02-15T18:43:33;11.60;;;10.40;;
20336;SDS011;10326;53.660;10.200;2024-02-15T18:46:00;11.77;;;10.57;;
20336;SDS011;10326;53.660;10.200;2024-02-15T18:48:30;11.25;;;10.10;;
20336;SDS011;10326;53.660;10.200;2024-02-15T18:50:57;10.98;;;9.95;;
20336;SDS011;10326;53.660;10.200;2024-02-15T18:53:24;11.18;;;10.00;;
20336;SDS011;10326;53.660;10.200;2024-02-15T18:55:51;10.68;;;9.77;;
20336;SDS011;10326;53.660;10.200;2024-02-15T18:58:20;10.52;;;9.52;;
20336;SDS011;10326;53.660;10.200;2024-02-15T19:00:52;10.73;;;9.82;;
20336;SDS011;10326;53.660;10.200;2024-02-15T19:03:19;11.77;;;10.65;;
20336;SDS011;10326;53.660;10.200;2024-02-15T19:05:47;10.57;;;9.60;;
20336;SDS011;10326;53.660;10.200;2024-02-15T19:08:14;11.27;;;10.20;;
20336;SDS011;10326;53.660;10.200;2024-02-15T19:10:41;11.35;;;10.35;;
20336;SDS011;10326;53.660;10.200;2024-02-15T19:13:09;10.77;;;9.75;;
20336;SDS011;10326;53.660;10.200;2024-02-15T19:15:37;10.43;;;9.45;;
20336;SDS011;10326;53.660;10.200;2024-02-15T19:18:06;11.07;;;10.00;;
20336;SDS011;10326;53.660;10.200;2024-02-15T19:20:33;10.95;;;9.88;;
20336;SDS011;10326;53.660;10.200;2024-02-15T19:23:00;10.57;;;9.68;;
20336;SDS011;10326;53.660;10.200;2024-02-15T19:25:31;11.02;;;10.02;;
20336;SDS011;10326;53.660;10.200;2024-02-15T19:27:58;9.52;;;8.73;;
20336;SDS011;10326;53.660;10.200;2024-02-15T19:30:30;11.13;;;10.13;;
20336;SDS011;10326;53.660;10.200;2024-02-15T19:32:57;10.13;;;9.27;;
20336;SDS011;10326;53.660;10.200;2024-02-15T19:35:26;9.70;;;8.90;;
20336;SDS011;10326;53.660;10.200;2024-02-15T19:37:55;10.30;;;8.77;;
20336;SDS011;10326;53.660;10.200;2024-02-15T19:40:23;9.43;;;8.43;;
20336;SDS011;10326;53.660;10.200;2024-02-15T19:42:50;9.15;;;8.38;;
20336;SDS011;10326;53.660;10.200;2024-02-15T19:45:17;8.73;;;7.93;;
20336;SDS011;10326;53.660;10.200;2024-02-15T19:47:45;9.05;;;8.25;;
20336;SDS011;10326;53.660;10.200;2024-02-15T19:50:13;10.40;;;8.20;;
20336;SDS011;10326;53.660;10.200;2024-02-15T19:52:43;13.85;;;8.90;;
20336;SDS011;10326;53.660;10.200;2024-02-15T19:55:38;8.80;;;7.90;;
20336;SDS011;10326;53.660;10.200;2024-02-15T19:58:06;8.45;;;7.70;;
20336;SDS011;10326;53.660;10.200;2024-02-15T20:00:33;8.18;;;7.47;;
20336;SDS011;10326;53.660;10.200;2024-02-15T20:03:01;8.65;;;7.95;;
20336;SDS011;10326;53.660;10.200;2024-02-15T20:05:29;8.60;;;7.47;;
20336;SDS011;10326;53.660;10.200;2024-02-15T20:07:58;8.43;;;7.65;;
20336;SDS011;10326;53.660;10.200;2024-02-15T20:10:25;8.27;;;7.35;;
20336;SDS011;10326;53.660;10.200;2024-02-15T20:12:52;7.47;;;6.75;;
20336;SDS011;10326;53.660;10.200;2024-02-15T20:15:19;7.80;;;6.47;;
20336;SDS011;10326;53.660;10.200;2024-02-15T20:17:46;7.40;;;6.65;;
20336;SDS011;10326;53.660;10.200;2024-02-15T20:20:14;7.20;;;6.55;;
20336;SDS011;10326;53.660;10.200;2024-02-15T20:22:43;7.75;;;7.03;;
20336;SDS011;10326;53.660;10.200;2024-02-15T20:25:13;7.80;;;7.15;;
20336;SDS011;10326;53.660;10.200;2024-02-15T20:27:40;8.27;;;6.85;;
20336;SDS011;10326;53.660;10.200;2024-02-15T20:30:07;7.60;;;6.78;;
20336;SDS011;10326;53.660;10.200;2024-02-15T20:32:37;8.38;;;6.65;;
20336;SDS011;10326;53.660;10.200;2024-02-15T20:35:04;7.57;;;6.90;;
20336;SDS011;10326;53.660;10.200;2024-02-15T20:37:32;6.85;;;6.15;;
20336;SDS011;10326;53.660;10.200;2024-02-15T20:40:00;7.05;;;6.35;;
20336;SDS011;10326;53.660;10.200;2024-02-15T20:42:28;6.93;;;6.22;;
20336;SDS011;10326;53.660;10.200;2024-02-15T20:44:55;6.68;;;6.10;;
20336;SDS011;10326;53.660;10.200;2024-02-15T20:47:23;6.90;;;5.85;;
20336;SDS011;10326;53.660;10.200;2024-02-15T20:49:54;7.05;;;6.32;;
20336;SDS011;10326;53.660;10.200;2024-02-15T20:52:23;5.97;;;5.43;;
20336;SDS011;10326;53.660;10.200;2024-02-15T20:54:51;9.27;;;6.28;;
20336;SDS011;10326;53.660;10.200;2024-02-15T20:57:19;7.18;;;6.07;;
20336;SDS011;10326;53.660;10.200;2024-02-15T20:59:48;6.68;;;6.05;;
20336;SDS011;10326;53.660;10.200;2024-02-15T21:02:16;6.20;;;5.68;;
20336;SDS011;10326;53.660;10.200;2024-02-15T21:04:45;5.93;;;5.28;;
20336;SDS011;10326;53.660;10.200;2024-02-15T21:07:12;7.38;;;5.35;;
20336;SDS011;10326;53.660;10.200;2024-02-15T21:09:39;7.18;;;5.32;;
20336;SDS011;10326;53.660;10.200;2024-02-15T21:12:06;6.07;;;5.50;;
20336;SDS011;10326;53.660;10.200;2024-02-15T21:14:34;7.40;;;5.65;;
20336;SDS011;10326;53.660;10.200;2024-02-15T21:17:03;5.80;;;5.30;;
20336;SDS011;10326;53.660;10.200;2024-02-15T21:19:32;6.63;;;4.78;;
20336;SDS011;10326;53.660;10.200;2024-02-15T21:22:03;5.90;;;5.35;;
20336;SDS011;10326;53.660;10.200;2024-02-15T21:24:30;5.53;;;4.93;;
20336;SDS011;10326;53.660;10.200;2024-02-15T21:26:57;5.57;;;5.07;;
20336;SDS011;10326;53.660;10.200;2024-02-15T21:29:25;5.82;;;5.20;;
20336;SDS011;10326;53.660;10.200;2024-02-15T21:31:53;5.70;;;5.20;;
20336;SDS011;10326;53.660;10.200;2024-02-15T21:34:21;5.35;;;4.95;;
20336;SDS011;10326;53.660;10.200;2024-02-15T21:36:49;6.53;;;4.82;;
20336;SDS011;10326;53.660;10.200;2024-02-15T21:39:16;5.30;;;4.80;;
20336;SDS011;10326;53.660;10.200;2024-02-15T21:41:47;5.45;;;4.88;;
20336;SDS011;10326;53.660;10.200;2024-02-15T21:44:14;5.78;;;4.85;;
20336;SDS011;10326;53.660;10.200;2024-02-15T21:46:42;5.30;;;4.78;;
20336;SDS011;10326;53.660;10.200;2024-02-15T21:49:10;5.05;;;4.65;;
20336;SDS011;10326;53.660;10.200;2024-02-15T21:51:39;4.70;;;4.30;;
20336;SDS011;10326;53.660;10.200;2024-02-15T21:54:07;6.88;;;5.03;;
20336;SDS011;10326;53.660;10.200;2024-02-15T21:56:34;5.22;;;4.40;;
20336;SDS011;10326;53.660;10.200;2024-02-15T21:59:02;4.53;;;4.13;;
20336;SDS011;10326;53.660;10.200;2024-02-15T22:01:29;5.75;;;4.20;;
20336;SDS011;10326;53.660;10.200;2024-02-15T22:03:56;4.88;;;4.30;;
20336;SDS011;10326;53.660;10.200;2024-02-15T22:06:23;5.18;;;4.40;;
20336;SDS011;10326;53.660;10.200;2024-02-15T22:08:52;7.20;;;4.07;;
20336;SDS011;10326;53.660;10.200;2024-02-15T22:11:20;5.82;;;4.30;;
20336;SDS011;10326;53.660;10.200;2024-02-15T22:13:47;4.43;;;3.95;;
20336;SDS011;10326;53.660;10.200;2024-02-15T22:16:14;6.35;;;4.25;;
20336;SDS011;10326;53.660;10.200;2024-02-15T22:18:42;4.30;;;3.92;;
20336;SDS011;10326;53.660;10.200;2024-02-15T22:21:10;5.03;;;4.57;;
20336;SDS011;10326;53.660;10.200;2024-02-15T22:23:37;5.40;;;3.90;;
20336;SDS011;10326;53.660;10.200;2024-02-15T22:26:14;4.88;;;4.38;;
20336;SDS011;10326;53.660;10.200;2024-02-15T22:28:41;6.30;;;4.25;;
20336;SDS011;10326;53.660;10.200;2024-02-15T22:31:14;4.18;;;3.85;;
20336;SDS011;10326;53.660;10.200;2024-02-15T22:33:42;5.57;;;3.80;;
20336;SDS011;10326;53.660;10.200;2024-02-15T22:36:18;4.13;;;3.72;;
20336;SDS011;10326;53.660;10.200;2024-02-15T22:38:46;4.38;;;3.90;;
20336;SDS011;10326;53.660;10.200;2024-02-15T22:41:14;6.85;;;4.13;;
20336;SDS011;10326;53.660;10.200;2024-02-15T22:43:42;5.03;;;4.50;;
20336;SDS011;10326;53.660;10.200;2024-02-15T22:46:09;4.93;;;4.00;;
20336;SDS011;10326;53.660;10.200;2024-02-15T22:48:37;5.70;;;4.15;;
20336;SDS011;10326;53.660;10.200;2024-02-15T22:51:04;6.88;;;4.60;;
20336;SDS011;10326;53.660;10.200;2024-02-15T22:53:32;8.60;;;4.75;;
20336;SDS011;10326;53.660;10.200;2024-02-15T22:56:04;4.60;;;4.03;;
20336;SDS011;10326;53.660;10.200;2024-02-15T22:58:35;4.97;;;4.22;;
20336;SDS011;10326;53.660;10.200;2024-02-15T23:01:04;6.50;;;4.35;;
20336;SDS011;10326;53.660;10.200;2024-02-15T23:03:32;4.70;;;4.13;;
20336;SDS011;10326;53.660;10.200;2024-02-15T23:05:59;5.38;;;4.38;;
20336;SDS011;10326;53.660;10.200;2024-02-15T23:08:27;5.75;;;4.35;;
20336;SDS011;10326;53.660;10.200;2024-02-15T23:10:54;4.70;;;4.28;;
20336;SDS011;10326;53.660;10.200;2024-02-15T23:13:21;4.72;;;4.00;;
20336;SDS011;10326;53.660;10.200;2024-02-15T23:15:49;5.50;;;3.88;;
20336;SDS011;10326;53.660;10.200;2024-02-15T23:18:17;7.43;;;4.32;;
20336;SDS011;10326;53.660;10.200;2024-02-15T23:20:45;5.70;;;4.60;;
20336;SDS011;10326;53.660;10.200;2024-02-15T23:23:13;5.10;;;3.92;;
20336;SDS011;10326;53.660;10.200;2024-02-15T23:25:41;6.22;;;4.30;;
20336;SDS011;10326;53.660;10.200;2024-02-15T23:28:09;7.95;;;3.85;;
20336;SDS011;10326;53.660;10.200;2024-02-15T23:30:37;7.95;;;4.20;;
20336;SDS011;10326;53.660;10.200;2024-02-15T23:33:07;12.07;;;4.82;;
20336;SDS011;10326;53.660;10.200;2024-02-15T23:35:35;6.72;;;4.25;;
20336;SDS011;10326;53.660;10.200;2024-02-15T23:38:12;6.75;;;4.07;;
20336;SDS011;10326;53.660;10.200;2024-02-15T23:40:58;5.28;;;4.20;;
20336;SDS011;10326;53.660;10.200;2024-02-15T23:43:25;5.90;;;4.00;;
20336;SDS011;10326;53.660;10.200;2024-02-15T23:45:53;6.13;;;4.88;;
20336;SDS011;10326;53.660;10.200;2024-02-15T23:48:21;4.97;;;4.32;;
20336;SDS011;10326;53.660;10.200;2024-02-15T23:50:48;9.50;;;4.28;;
20336;SDS011;10326;53.660;10.200;2024-02-15T23:53:15;5.43;;;4.40;;
20336;SDS011;10326;53.660;10.200;2024-02-15T23:55:42;4.28;;;3.85;;
20336;SDS011;10326;53.660;10.200;2024-02-15T23:58:09;7.32;;;4.40;;
